Time;durP1;ratioP1;P1;durP2;ratioP2;P2;SDS_P1;SDS_P2;PMS_P1;PMS_P2;Temp;Humidity;BMP_temperature;BMP_pressure;BME280_temperature;BME280_humidity;BME280_pressure;Samples;Min_cycle;Max_cycle;Signal;HPM_P1;HPM_P2
2022/09/10 00:02:12;;;;;;;0.30;0.30;;;25.30;54.40;;;;;;5032301;28;20125;-61
2022/09/10 00:04:39;;;;;;;0.20;0.20;;;25.30;53.90;;;;;;5049548;28;20048;-60
2022/09/10 00:07:06;;;;;;;0.20;0.20;;;25.30;53.90;;;;;;5045611;28;20051;-60
2022/09/10 00:09:34;;;;;;;0.35;0.28;;;25.30;53.90;;;;;;5048760;28;20049;-60
2022/09/10 00:12:01;;;;;;;0.40;0.40;;;25.30;53.90;;;;;;5031913;28;20041;-60
2022/09/10 00:14:28;;;;;;;0.20;0.20;;;25.30;53.90;;;;;;5049676;28;20056;-60
2022/09/10 00:16:56;;;;;;;0.30;0.30;;;25.30;53.90;;;;;;5049890;28;20041;-60
2022/09/10 00:19:23;;;;;;;0.55;0.22;;;25.30;54.00;;;;;;5049450;28;20053;-60
2022/09/10 00:21:50;;;;;;;0.30;0.30;;;25.30;54.00;;;;;;5031980;28;20045;-60
2022/09/10 00:24:17;;;;;;;0.20;0.20;;;25.30;54.00;;;;;;5048882;28;20132;-60
2022/09/10 00:26:45;;;;;;;1.48;0.40;;;25.30;54.00;;;;;;5050337;28;20085;-60
2022/09/10 00:29:15;;;;;;;0.20;0.20;;;25.30;54.00;;;;;;5031886;28;20472;-60
2022/09/10 00:31:43;;;;;;;0.50;0.30;;;25.30;54.00;;;;;;5031256;28;20053;-60
2022/09/10 00:34:11;;;;;;;0.20;0.20;;;25.30;54.00;;;;;;5049844;28;20051;-60
2022/09/10 00:36:41;;;;;;;0.38;0.20;;;25.30;54.00;;;;;;5049206;28;20049;-60
2022/09/10 00:39:19;;;;;;;0.30;0.30;;;25.30;54.10;;;;;;5044565;28;20041;-60
2022/09/10 00:41:47;;;;;;;0.30;0.30;;;25.30;54.10;;;;;;5048676;28;20049;-60
2022/09/10 00:44:54;;;;;;;0.22;0.22;;;25.30;54.00;;;;;;5049161;28;20119;-60
2022/09/10 00:47:36;;;;;;;0.45;0.30;;;25.30;54.00;;;;;;5034175;28;20049;-60
2022/09/10 00:50:13;;;;;;;0.82;0.30;;;25.30;54.10;;;;;;5048072;28;20051;-60
2022/09/10 00:52:41;;;;;;;2.35;0.40;;;25.30;54.10;;;;;;5049111;28;20120;-60
2022/09/10 00:55:11;;;;;;;0.25;0.25;;;25.30;54.10;;;;;;5031156;28;20086;-60
2022/09/10 00:57:38;;;;;;;0.30;0.30;;;25.30;54.10;;;;;;5048882;28;20049;-60
2022/09/10 01:00:10;;;;;;;0.35;0.30;;;25.30;54.10;;;;;;5048608;28;20052;-60
2022/09/10 01:02:38;;;;;;;0.17;0.17;;;25.30;54.10;;;;;;5047656;28;20059;-60
2022/09/10 01:05:08;;;;;;;0.25;0.25;;;25.30;54.10;;;;;;5041086;28;20048;-60
2022/09/10 01:07:35;;;;;;;0.20;0.20;;;25.30;54.10;;;;;;5048454;28;20041;-60
2022/09/10 01:10:09;;;;;;;0.20;0.20;;;25.30;54.10;;;;;;5043864;28;20529;-60
2022/09/10 01:13:00;;;;;;;0.20;0.20;;;25.30;54.10;;;;;;5047440;28;20036;-60
2022/09/10 01:15:54;;;;;;;0.45;0.20;;;25.30;54.10;;;;;;5048556;28;20572;-60
2022/09/10 01:18:55;;;;;;;1.20;0.30;;;25.30;54.10;;;;;;5048444;28;20045;-60
2022/09/10 01:22:02;;;;;;;0.45;0.20;;;25.30;54.10;;;;;;5048553;28;20060;-60
2022/09/10 01:24:54;;;;;;;0.30;0.20;;;25.30;54.10;;;;;;5048137;28;20087;-60
2022/09/10 01:27:41;;;;;;;0.30;0.30;;;25.30;54.10;;;;;;5017274;28;20055;-60
2022/09/10 01:30:19;;;;;;;2.22;0.30;;;25.30;54.20;;;;;;5040160;28;20048;-60
2022/09/10 01:33:01;;;;;;;0.50;0.38;;;25.30;54.20;;;;;;5047948;28;20151;-60
2022/09/10 01:35:45;;;;;;;0.20;0.20;;;25.30;54.20;;;;;;5048383;28;20123;-60
2022/09/10 01:38:18;;;;;;;0.32;0.32;;;25.30;54.20;;;;;;5048315;28;20402;-60
2022/09/10 01:40:46;;;;;;;0.63;0.30;;;25.30;54.20;;;;;;5047812;28;20156;-60
2022/09/10 01:43:13;;;;;;;0.55;0.20;;;25.30;54.20;;;;;;5043314;28;20053;-60
2022/09/10 01:46:13;;;;;;;2.65;0.20;;;25.20;54.10;;;;;;5048393;28;20061;-60
2022/09/10 01:49:20;;;;;;;0.30;0.30;;;25.20;54.10;;;;;;5048080;28;20045;-61
2022/09/10 01:52:14;;;;;;;0.30;0.30;;;25.20;54.10;;;;;;5019437;28;20075;-60
2022/09/10 01:55:20;;;;;;;0.22;0.22;;;25.20;54.20;;;;;;5047795;28;20053;-60
2022/09/10 01:58:25;;;;;;;0.50;0.38;;;25.20;54.20;;;;;;5047543;28;20045;-60
2022/09/10 02:01:14;;;;;;;1.27;0.20;;;25.30;54.20;;;;;;5032970;28;20397;-60
2022/09/10 02:03:46;;;;;;;0.20;0.20;;;25.20;54.20;;;;;;5047889;28;20049;-60
2022/09/10 02:06:18;;;;;;;0.20;0.20;;;25.20;54.20;;;;;;5047948;28;20055;-60
2022/09/10 02:08:48;;;;;;;0.20;0.20;;;25.20;54.20;;;;;;5047684;28;20041;-60
2022/09/10 02:11:15;;;;;;;;;;;25.20;54.20;;;;;;5048872;28;20049;-60
2022/09/10 02:13:42;;;;;;;0.38;0.32;;;25.20;54.20;;;;;;5043311;28;19927;-60
2022/09/10 02:16:14;;;;;;;0.25;0.20;;;25.20;54.20;;;;;;5047991;28;20049;-60
2022/09/10 02:18:41;;;;;;;2.65;0.63;;;25.20;54.20;;;;;;5030500;28;20055;-61
2022/09/10 02:21:10;;;;;;;0.93;0.22;;;25.20;54.30;;;;;;5047916;28;20052;-60
2022/09/10 02:23:44;;;;;;;0.47;0.28;;;25.20;54.30;;;;;;5047096;28;20611;-60
2022/09/10 02:26:13;;;;;;;0.45;0.28;;;25.20;54.30;;;;;;5029629;28;20064;-60
2022/09/10 02:28:48;;;;;;;0.30;0.30;;;25.20;54.30;;;;;;5047988;28;20044;-60
2022/09/10 02:31:17;;;;;;;0.47;0.20;;;25.20;54.30;;;;;;5029613;28;20049;-60
2022/09/10 02:33:44;;;;;;;0.55;0.40;;;25.20;54.30;;;;;;5046913;28;20091;-60
2022/09/10 02:36:11;;;;;;;0.35;0.20;;;25.20;54.30;;;;;;5029455;28;20294;-60
2022/09/10 02:38:39;;;;;;;0.30;0.30;;;25.20;54.30;;;;;;5047054;28;20413;-60
2022/09/10 02:41:08;;;;;;;0.20;0.20;;;25.20;54.30;;;;;;5047080;28;20049;-60
2022/09/10 02:43:36;;;;;;;;;;;25.20;54.30;;;;;;5047659;28;20497;-60
2022/09/10 02:46:07;;;;;;;0.22;0.22;;;25.30;54.40;;;;;;5043193;28;20266;-60
2022/09/10 02:48:34;;;;;;;0.20;0.20;;;25.20;54.30;;;;;;5047298;28;20358;-60
2022/09/10 02:51:01;;;;;;;0.35;0.10;;;25.20;54.30;;;;;;5029559;28;20540;-60
2022/09/10 02:53:30;;;;;;;0.10;0.10;;;25.20;54.30;;;;;;5029347;28;20080;-60
2022/09/10 02:55:57;;;;;;;0.10;0.10;;;25.20;54.30;;;;;;5047673;28;20076;-60
2022/09/10 02:58:24;;;;;;;0.30;0.30;;;25.20;54.30;;;;;;5046907;28;20132;-60
2022/09/10 03:00:52;;;;;;;0.28;0.28;;;25.20;54.30;;;;;;5047117;28;20061;-60
2022/09/10 03:03:19;;;;;;;0.20;0.20;;;25.20;54.30;;;;;;5047436;28;20053;-60
2022/09/10 03:05:46;;;;;;;0.40;0.20;;;25.20;54.80;;;;;;5041542;28;20053;-62
2022/09/10 03:08:13;;;;;;;0.22;0.22;;;25.30;54.40;;;;;;5047162;28;20066;-60
2022/09/10 03:10:40;;;;;;;1.00;0.20;;;25.20;54.30;;;;;;5046558;28;20100;-60
2022/09/10 03:13:07;;;;;;;0.20;0.20;;;25.20;54.30;;;;;;5049356;28;20041;-60
2022/09/10 03:15:34;;;;;;;0.10;0.10;;;25.20;54.30;;;;;;5050958;28;20435;-60
2022/09/10 03:18:01;;;;;;;0.10;0.10;;;25.20;54.30;;;;;;5046612;28;20041;-60
2022/09/10 03:20:30;;;;;;;0.95;0.30;;;25.20;54.30;;;;;;5050619;28;20386;-60
2022/09/10 03:22:57;;;;;;;0.30;0.20;;;25.20;54.30;;;;;;5050070;28;20132;-61
2022/09/10 03:25:24;;;;;;;0.20;0.20;;;25.20;54.30;;;;;;5050497;28;20136;-60
2022/09/10 03:27:51;;;;;;;0.43;0.28;;;25.20;54.30;;;;;;5051328;28;20284;-61
2022/09/10 03:30:19;;;;;;;0.40;0.10;;;25.20;54.30;;;;;;5049880;28;20524;-60
2022/09/10 03:32:46;;;;;;;0.55;0.30;;;25.20;54.40;;;;;;5051053;28;20048;-60
2022/09/10 03:35:15;;;;;;;0.82;0.35;;;25.20;54.30;;;;;;5050601;28;20045;-60
2022/09/10 03:37:43;;;;;;;0.10;0.10;;;25.20;54.40;;;;;;5050343;28;20112;-60
2022/09/10 03:40:10;;;;;;;0.15;0.15;;;25.20;54.30;;;;;;5049877;28;20064;-60
2022/09/10 03:42:37;;;;;;;0.25;0.25;;;25.20;54.40;;;;;;5050246;28;20048;-60
2022/09/10 03:45:05;;;;;;;0.30;0.30;;;25.20;54.40;;;;;;5050138;28;20128;-60
2022/09/10 03:47:32;;;;;;;0.20;0.20;;;25.20;54.40;;;;;;5050500;28;20091;-60
2022/09/10 03:49:59;;;;;;;0.28;0.28;;;25.20;54.40;;;;;;5045361;28;20048;-60
2022/09/10 03:52:27;;;;;;;0.17;0.13;;;25.20;54.40;;;;;;5050443;28;20136;-60
2022/09/10 03:54:54;;;;;;;0.30;0.30;;;25.20;54.40;;;;;;5049638;28;20055;-61
2022/09/10 03:57:22;;;;;;;0.17;0.17;;;25.20;54.40;;;;;;5050535;28;20493;-60
2022/09/10 03:59:49;;;;;;;0.22;0.22;;;25.20;54.40;;;;;;5049536;28;20060;-60
2022/09/10 04:02:17;;;;;;;0.75;0.38;;;25.20;54.40;;;;;;5050626;28;20055;-60
2022/09/10 04:04:44;;;;;;;2.15;0.40;;;25.20;54.40;;;;;;5049468;28;20053;-60
2022/09/10 04:07:11;;;;;;;0.30;0.30;;;25.20;54.40;;;;;;5032168;28;20055;-60
2022/09/10 04:09:38;;;;;;;0.20;0.13;;;25.20;54.40;;;;;;5049550;28;20045;-60
2022/09/10 04:12:05;;;;;;;0.25;0.22;;;25.30;54.50;;;;;;5049422;28;20041;-60
2022/09/10 04:14:33;;;;;;;0.82;0.40;;;25.20;54.40;;;;;;5049121;28;20052;-60
2022/09/10 04:17:00;;;;;;;0.40;0.40;;;25.20;54.40;;;;;;5049986;28;20057;-61
2022/09/10 04:19:27;;;;;;;0.10;0.10;;;25.20;54.40;;;;;;5049707;28;20044;-60
2022/09/10 04:21:56;;;;;;;0.32;0.32;;;25.20;54.40;;;;;;5028804;28;20135;-60
2022/09/10 04:24:23;;;;;;;0.20;0.20;;;25.20;54.40;;;;;;5048168;28;20077;-60
2022/09/10 04:26:51;;;;;;;0.10;0.10;;;25.20;54.40;;;;;;5049333;28;20052;-60
2022/09/10 04:29:18;;;;;;;0.32;0.30;;;25.20;54.40;;;;;;5032265;28;20080;-60
2022/09/10 04:31:45;;;;;;;0.30;0.30;;;25.20;54.40;;;;;;5015092;28;20417;-60
2022/09/10 04:34:12;;;;;;;0.20;0.20;;;25.20;54.40;;;;;;5049738;28;20044;-60
2022/09/10 04:36:39;;;;;;;0.20;0.20;;;25.20;54.40;;;;;;5049088;28;20154;-60
2022/09/10 04:39:07;;;;;;;0.30;0.30;;;25.20;54.40;;;;;;5031439;28;20061;-60
2022/09/10 04:41:34;;;;;;;0.30;0.25;;;25.20;54.40;;;;;;5048743;28;20079;-60
2022/09/10 04:44:01;;;;;;;0.20;0.20;;;25.20;54.40;;;;;;5048996;28;20473;-60
2022/09/10 04:46:28;;;;;;;0.30;0.30;;;25.20;54.30;;;;;;5049298;28;20045;-60
2022/09/10 04:48:56;;;;;;;0.90;0.20;;;25.20;54.30;;;;;;5048940;28;20055;-60
2022/09/10 04:51:23;;;;;;;0.20;0.20;;;25.30;54.40;;;;;;5048868;28;20099;-60
2022/09/10 04:53:51;;;;;;;0.43;0.28;;;25.20;54.30;;;;;;5049492;28;20536;-60
2022/09/10 04:56:19;;;;;;;0.30;0.30;;;25.30;54.30;;;;;;5044086;28;20473;-60
2022/09/10 04:58:47;;;;;;;0.30;0.30;;;25.20;54.30;;;;;;5049288;28;20397;-60
2022/09/10 05:01:14;;;;;;;0.20;0.20;;;25.20;54.20;;;;;;5030528;28;20045;-60
2022/09/10 05:03:41;;;;;;;0.25;0.25;;;25.30;54.30;;;;;;5049133;28;20049;-60
2022/09/10 05:06:08;;;;;;;0.17;0.10;;;25.30;54.30;;;;;;5048406;28;20048;-61
2022/09/10 05:08:36;;;;;;;0.75;0.20;;;25.30;54.30;;;;;;5049514;28;20451;-60
2022/09/10 05:11:04;;;;;;;0.32;0.20;;;25.20;54.20;;;;;;5048156;28;20056;-60
2022/09/10 05:13:31;;;;;;;0.57;0.40;;;25.20;54.30;;;;;;5048009;28;20076;-60
2022/09/10 05:15:58;;;;;;;0.60;0.30;;;25.20;54.40;;;;;;5048438;28;20048;-60
2022/09/10 05:18:26;;;;;;;0.20;0.15;;;25.10;54.40;;;;;;5048693;28;20071;-60
2022/09/10 05:20:53;;;;;;;0.35;0.35;;;25.00;54.60;;;;;;5048456;28;20060;-60
2022/09/10 05:23:20;;;;;;;0.20;0.20;;;24.80;55.00;;;;;;5030810;28;20041;-60
2022/09/10 05:25:47;;;;;;;0.60;0.28;;;24.70;54.90;;;;;;5046766;28;20053;-60
2022/09/10 05:28:19;;;;;;;2.08;0.38;;;24.40;54.00;;;;;;5045957;28;20293;-60
2022/09/10 05:30:46;;;;;;;0.73;0.35;;;24.10;53.30;;;;;;5047673;28;20045;-60
2022/09/10 05:33:17;;;;;;;0.20;0.20;;;23.70;52.70;;;;;;5048401;28;20057;-60
2022/09/10 05:35:50;;;;;;;0.32;0.32;;;23.30;52.30;;;;;;5047615;28;20511;-59
2022/09/10 05:38:18;;;;;;;0.30;0.30;;;22.90;51.80;;;;;;5048092;28;20045;-60
2022/09/10 05:40:45;;;;;;;0.75;0.40;;;22.60;52.00;;;;;;5048245;28;20056;-59
2022/09/10 05:43:12;;;;;;;0.20;0.20;;;22.20;51.70;;;;;;5047621;28;20049;-60
2022/09/10 05:45:40;;;;;;;0.43;0.43;;;21.80;52.10;;;;;;5048294;28;20144;-60
2022/09/10 05:48:07;;;;;;;0.30;0.30;;;21.50;52.10;;;;;;5029978;28;20045;-60
2022/09/10 05:50:34;;;;;;;0.45;0.40;;;21.20;53.40;;;;;;5047820;28;20132;-59
2022/09/10 05:53:02;;;;;;;1.30;0.40;;;20.90;54.80;;;;;;5048156;28;20049;-59
2022/09/10 05:55:30;;;;;;;0.50;0.50;;;20.80;55.00;;;;;;5047463;28;20506;-59
2022/09/10 05:57:57;;;;;;;0.40;0.40;;;20.60;54.60;;;;;;5048053;28;20076;-59
2022/09/10 06:00:25;;;;;;;0.50;0.30;;;20.50;55.20;;;;;;5042911;28;20193;-60
2022/09/10 06:02:52;;;;;;;0.47;0.47;;;20.30;55.20;;;;;;5030320;28;20060;-60
2022/09/10 06:05:22;;;;;;;0.40;0.40;;;20.20;55.10;;;;;;5047469;28;20417;-60
2022/09/10 06:07:50;;;;;;;0.28;0.28;;;20.10;55.40;;;;;;5047427;28;20437;-60
2022/09/10 06:10:18;;;;;;;0.40;0.40;;;20.00;56.00;;;;;;5047981;28;20063;-60
2022/09/10 06:12:47;;;;;;;0.60;0.47;;;19.90;55.30;;;;;;5047485;28;20061;-59
2022/09/10 06:15:15;;;;;;;2.25;0.43;;;19.80;56.20;;;;;;5047981;28;20489;-59
2022/09/10 06:17:42;;;;;;;0.30;0.30;;;19.70;56.90;;;;;;5047432;28;20052;-60
2022/09/10 06:20:12;;;;;;;0.50;0.50;;;19.70;56.90;;;;;;5047846;28;20196;-59
2022/09/10 06:22:40;;;;;;;0.55;0.55;;;19.60;55.80;;;;;;5047672;28;20217;-60
2022/09/10 06:25:07;;;;;;;0.30;0.30;;;19.50;57.20;;;;;;5047385;28;20400;-60
2022/09/10 06:27:34;;;;;;;0.90;0.60;;;19.50;57.30;;;;;;5047528;28;20048;-60
2022/09/10 06:30:01;;;;;;;0.50;0.50;;;19.40;56.50;;;;;;5047989;28;20375;-60
2022/09/10 06:32:30;;;;;;;0.77;0.50;;;19.40;57.60;;;;;;5042639;28;20056;-60
2022/09/10 06:34:57;;;;;;;0.40;0.40;;;19.30;57.90;;;;;;5047957;28;20045;-60
2022/09/10 06:37:25;;;;;;;0.85;0.38;;;19.30;57.00;;;;;;5047174;28;20281;-60
2022/09/10 06:39:52;;;;;;;0.73;0.60;;;19.20;57.30;;;;;;5047844;28;20049;-59
2022/09/10 06:42:20;;;;;;;0.50;0.50;;;19.10;57.80;;;;;;5047363;28;20120;-59
2022/09/10 06:44:47;;;;;;;0.88;0.73;;;19.10;57.60;;;;;;5047846;28;20075;-60
2022/09/10 06:47:14;;;;;;;0.65;0.45;;;19.00;57.20;;;;;;5048450;28;20041;-60
2022/09/10 06:50:01;;;;;;;1.05;0.45;;;19.00;58.50;;;;;;5050558;28;20130;-60
2022/09/10 06:52:28;;;;;;;0.88;0.70;;;18.90;58.40;;;;;;5051192;28;20056;-60
2022/09/10 06:54:55;;;;;;;1.38;0.63;;;18.90;57.30;;;;;;5051184;28;20502;-60
2022/09/10 06:57:25;;;;;;;0.73;0.50;;;18.80;58.00;;;;;;5051174;28;20489;-60
2022/09/10 06:59:52;;;;;;;0.52;0.50;;;18.80;58.50;;;;;;5051243;28;20049;-60
2022/09/10 07:02:19;;;;;;;0.70;0.70;;;18.80;58.00;;;;;;5052031;28;20057;-60
2022/09/10 07:04:47;;;;;;;0.63;0.57;;;18.70;56.40;;;;;;5046673;28;20433;-60
2022/09/10 07:07:14;;;;;;;1.58;0.90;;;18.70;57.60;;;;;;5051217;28;20051;-59
2022/09/10 07:09:42;;;;;;;0.50;0.50;;;18.60;58.40;;;;;;5051543;28;20045;-60
2022/09/10 07:12:09;;;;;;;1.63;0.77;;;18.50;57.30;;;;;;5050365;28;20490;-59
2022/09/10 07:14:36;;;;;;;0.60;0.60;;;18.40;58.10;;;;;;5050661;28;20048;-60
2022/09/10 07:17:03;;;;;;;0.50;0.50;;;18.40;58.60;;;;;;5051301;28;20563;-59
2022/09/10 07:19:31;;;;;;;1.08;0.65;;;18.30;57.60;;;;;;5016817;28;20370;-60
2022/09/10 07:21:58;;;;;;;0.95;0.70;;;18.20;57.80;;;;;;5051409;28;20060;-59
2022/09/10 07:24:26;;;;;;;0.55;0.55;;;18.20;59.30;;;;;;5051162;28;20048;-60
2022/09/10 07:26:53;;;;;;;0.63;0.63;;;18.20;58.90;;;;;;5050876;28;20132;-60
2022/09/10 07:29:20;;;;;;;0.70;0.70;;;18.10;57.90;;;;;;5050610;28;20063;-60
2022/09/10 07:31:47;;;;;;;0.93;0.52;;;18.10;59.20;;;;;;5051191;28;20136;-60
2022/09/10 07:34:14;;;;;;;0.47;0.47;;;18.10;59.40;;;;;;5050932;28;20053;-59
2022/09/10 07:36:41;;;;;;;1.05;1.00;;;18.10;58.70;;;;;;5045829;28;20509;-60
2022/09/10 07:39:10;;;;;;;1.75;0.50;;;18.10;59.10;;;;;;5049864;28;20477;-59
2022/09/10 07:41:37;;;;;;;0.43;0.43;;;18.00;59.50;;;;;;5050820;28;20053;-60
2022/09/10 07:44:04;;;;;;;0.88;0.70;;;18.00;58.60;;;;;;5050121;28;20128;-60
2022/09/10 07:46:31;;;;;;;0.50;0.50;;;18.00;58.40;;;;;;5050702;28;20049;-61
2022/09/10 07:48:59;;;;;;;0.80;0.68;;;18.00;59.60;;;;;;5050218;28;20045;-59
2022/09/10 07:51:29;;;;;;;1.08;0.80;;;18.00;59.00;;;;;;5050465;28;20072;-59
2022/09/10 07:53:58;;;;;;;0.87;0.70;;;18.00;58.30;;;;;;5050328;28;20052;-60
2022/09/10 07:56:25;;;;;;;0.98;0.50;;;17.90;59.90;;;;;;5050093;28;20084;-59
2022/09/10 07:58:53;;;;;;;0.57;0.52;;;18.00;60.00;;;;;;5049638;28;20073;-60
2022/09/10 08:01:21;;;;;;;0.52;0.50;;;18.00;58.80;;;;;;5049728;28;20064;-59
2022/09/10 08:03:48;;;;;;;0.50;0.50;;;17.90;58.50;;;;;;5050254;28;20456;-60
2022/09/10 08:06:16;;;;;;;0.80;0.55;;;17.90;60.20;;;;;;5050847;28;20390;-59
2022/09/10 08:08:43;;;;;;;0.65;0.40;;;17.90;59.60;;;;;;5044657;28;20080;-60
2022/09/10 08:11:16;;;;;;;0.50;0.50;;;18.00;59.50;;;;;;5050262;28;20512;-60
2022/09/10 08:13:45;;;;;;;0.47;0.40;;;18.00;59.70;;;;;;5049616;28;20132;-59
2022/09/10 08:16:17;;;;;;;0.73;0.50;;;18.00;60.40;;;;;;5050336;28;20045;-60
2022/09/10 08:18:50;;;;;;;0.47;0.47;;;18.00;59.30;;;;;;5049761;28;20041;-59
2022/09/10 08:21:18;;;;;;;0.52;0.52;;;18.00;59.80;;;;;;5048820;28;20043;-59
2022/09/10 08:23:50;;;;;;;0.73;0.55;;;18.00;60.40;;;;;;5049294;28;20053;-60
2022/09/10 08:26:17;;;;;;;0.50;0.50;;;18.00;59.90;;;;;;5031328;28;20412;-60
2022/09/10 08:28:46;;;;;;;0.50;0.50;;;18.00;59.20;;;;;;5049630;28;20049;-60
2022/09/10 08:31:13;;;;;;;0.43;0.43;;;18.00;59.70;;;;;;5048820;28;20071;-59
2022/09/10 08:33:40;;;;;;;0.93;0.50;;;18.10;59.80;;;;;;5049063;28;20045;-60
2022/09/10 08:36:10;;;;;;;4.93;0.82;;;18.10;59.00;;;;;;5049078;28;20052;-60
2022/09/10 08:38:39;;;;;;;1.15;1.00;;;18.10;58.90;;;;;;5048923;28;20092;-60
2022/09/10 08:41:32;;;;;;;2.85;0.63;;;18.10;59.70;;;;;;5044641;28;20055;-59
2022/09/10 08:44:12;;;;;;;0.57;0.57;;;18.10;59.50;;;;;;5034130;28;20084;-60
2022/09/10 08:46:55;;;;;;;1.10;0.60;;;18.10;59.40;;;;;;5033046;28;20057;-60
2022/09/10 08:49:39;;;;;;;1.65;0.70;;;18.20;59.00;;;;;;5030501;28;20048;-59
2022/09/10 08:52:28;;;;;;;0.30;0.30;;;18.10;58.70;;;;;;5049435;28;20049;-59
2022/09/10 08:55:22;;;;;;;0.93;0.40;;;18.10;58.60;;;;;;5048093;28;20055;-59
2022/09/10 08:57:56;;;;;;;0.68;0.50;;;18.10;59.00;;;;;;5049420;28;20052;-60
2022/09/10 09:00:27;;;;;;;0.47;0.35;;;18.10;58.80;;;;;;5048591;28;20528;-59
2022/09/10 09:03:08;;;;;;;0.30;0.30;;;18.10;58.60;;;;;;5031312;28;20397;-59
2022/09/10 09:05:48;;;;;;;0.43;0.43;;;18.10;58.90;;;;;;5032049;28;20397;-59
2022/09/10 09:08:20;;;;;;;0.45;0.35;;;18.10;58.90;;;;;;5049029;28;20061;-60
2022/09/10 09:10:51;;;;;;;0.52;0.50;;;18.10;59.10;;;;;;5048272;28;20051;-60
2022/09/10 09:13:54;;;;;;;3.03;0.70;;;18.10;59.70;;;;;;5044455;28;20052;-59
2022/09/10 09:16:42;;;;;;;2.28;0.35;;;18.10;58.70;;;;;;5048634;28;20037;-59
2022/09/10 09:19:33;;;;;;;0.60;0.47;;;18.10;59.10;;;;;;5048911;28;20408;-60
2022/09/10 09:22:14;;;;;;;0.40;0.40;;;18.10;58.80;;;;;;5048524;28;20289;-60
2022/09/10 09:25:06;;;;;;;0.50;0.38;;;18.10;58.90;;;;;;5048444;28;20547;-59
2022/09/10 09:27:36;;;;;;;0.35;0.35;;;18.10;59.90;;;;;;5048029;28;20481;-59
2022/09/10 09:30:05;;;;;;;;;;;18.10;59.00;;;;;;5048779;28;20099;-60
2022/09/10 09:32:40;;;;;;;0.25;0.20;;;18.10;59.10;;;;;;5047952;28;19998;-60
2022/09/10 09:35:31;;;;;;;0.60;0.40;;;18.10;59.10;;;;;;5048465;28;20049;-60
2022/09/10 09:38:23;;;;;;;0.90;0.65;;;18.10;58.70;;;;;;5030353;28;20148;-60
2022/09/10 09:40:57;;;;;;;0.35;0.35;;;18.10;58.60;;;;;;5047666;28;20053;-60
2022/09/10 09:44:01;;;;;;;0.40;0.40;;;18.10;59.30;;;;;;5048487;28;20044;-60
2022/09/10 09:46:28;;;;;;;0.30;0.30;;;18.10;58.80;;;;;;5030228;28;20051;-60
2022/09/10 09:48:57;;;;;;;0.30;0.30;;;18.00;59.10;;;;;;5048588;28;20052;-60
2022/09/10 09:51:29;;;;;;;1.05;0.40;;;18.00;59.90;;;;;;5047193;28;20063;-59
2022/09/10 09:54:02;;;;;;;0.40;0.40;;;18.00;59.00;;;;;;5047791;28;20737;-60
2022/09/10 09:56:51;;;;;;;0.30;0.30;;;18.10;59.60;;;;;;5047939;28;20489;-59
2022/09/10 09:59:30;;;;;;;2.28;0.40;;;18.10;59.00;;;;;;5046517;28;20288;-60
2022/09/10 10:02:15;;;;;;;0.38;0.20;;;18.10;58.90;;;;;;5027786;28;20060;-60
2022/09/10 10:04:54;;;;;;;0.20;0.20;;;18.10;58.60;;;;;;5027733;28;20083;-59
2022/09/10 10:07:30;;;;;;;0.47;0.38;;;18.10;58.20;;;;;;5027965;28;20045;-59
2022/09/10 10:09:59;;;;;;;0.77;0.63;;;18.10;58.20;;;;;;5027547;28;20049;-59
2022/09/10 10:12:32;;;;;;;0.52;0.50;;;18.10;58.10;;;;;;5030646;28;20512;-59
2022/09/10 10:15:01;;;;;;;0.88;0.60;;;18.00;58.30;;;;;;5040704;28;20053;-60
2022/09/10 10:17:34;;;;;;;0.30;0.30;;;18.00;58.10;;;;;;5042954;28;20099;-59
2022/09/10 10:20:09;;;;;;;0.50;0.30;;;18.00;59.20;;;;;;5047451;28;20047;-60
2022/09/10 10:22:38;;;;;;;0.40;0.40;;;18.10;58.80;;;;;;5051039;28;20052;-59
2022/09/10 10:25:37;;;;;;;0.55;0.30;;;18.10;58.00;;;;;;5051753;28;20104;-60
2022/09/10 10:28:22;;;;;;;0.30;0.30;;;18.10;57.90;;;;;;5051128;28;20048;-60
2022/09/10 10:30:52;;;;;;;0.30;0.30;;;18.10;58.30;;;;;;5051953;28;20057;-60
2022/09/10 10:33:30;;;;;;;3.70;0.80;;;18.10;58.00;;;;;;5051306;28;20045;-59
2022/09/10 10:36:17;;;;;;;0.50;0.40;;;18.10;58.20;;;;;;5033730;28;20048;-59
2022/09/10 10:39:03;;;;;;;0.73;0.43;;;18.10;58.40;;;;;;5051725;28;20053;-60
2022/09/10 10:41:57;;;;;;;0.40;0.40;;;18.10;58.10;;;;;;5034669;28;20047;-60
2022/09/10 10:44:48;;;;;;;0.32;0.32;;;18.10;58.30;;;;;;5051333;28;20049;-59
2022/09/10 10:47:39;;;;;;;0.20;0.20;;;18.20;59.60;;;;;;5051423;28;20045;-60
2022/09/10 10:50:41;;;;;;;0.20;0.20;;;18.20;58.50;;;;;;5048422;28;20056;-59
2022/09/10 10:53:37;;;;;;;1.17;0.43;;;18.20;58.30;;;;;;5051214;28;20482;-59
2022/09/10 10:56:41;;;;;;;0.50;0.35;;;18.20;58.80;;;;;;5051539;28;20406;-59
2022/09/10 10:59:44;;;;;;;0.47;0.40;;;18.30;58.30;;;;;;5033892;28;20299;-59
2022/09/10 11:02:21;;;;;;;1.25;0.40;;;18.20;58.10;;;;;;5050723;28;20049;-59
2022/09/10 11:04:50;;;;;;;0.80;0.43;;;18.30;58.50;;;;;;5050861;28;20508;-59
2022/09/10 11:07:30;;;;;;;0.68;0.30;;;18.20;58.90;;;;;;5051102;28;20307;-59
2022/09/10 11:10:14;;;;;;;0.20;0.20;;;18.30;58.50;;;;;;5051369;28;20136;-59
2022/09/10 11:12:49;;;;;;;0.35;0.30;;;18.30;58.40;;;;;;5050924;28;20071;-59
2022/09/10 11:15:38;;;;;;;1.00;0.30;;;18.30;59.00;;;;;;5050473;28;20053;-59
2022/09/10 11:18:32;;;;;;;0.30;0.30;;;18.30;58.30;;;;;;5051053;28;20077;-60
2022/09/10 11:21:20;;;;;;;0.13;0.13;;;18.30;58.20;;;;;;5045545;28;20048;-59
2022/09/10 11:24:10;;;;;;;0.30;0.30;;;18.30;58.60;;;;;;5051459;28;20516;-59
2022/09/10 11:26:59;;;;;;;0.40;0.40;;;18.30;58.10;;;;;;5050688;28;20045;-59
2022/09/10 11:29:51;;;;;;;0.30;0.30;;;18.40;58.20;;;;;;5050408;28;20048;-59
2022/09/10 11:32:39;;;;;;;0.77;0.40;;;18.40;57.70;;;;;;5050172;28;20404;-59
2022/09/10 11:35:27;;;;;;;0.98;0.30;;;18.30;58.50;;;;;;5050894;28;20378;-59
2022/09/10 11:38:19;;;;;;;0.30;0.30;;;18.40;58.80;;;;;;5050247;28;20053;-59
2022/09/10 11:41:23;;;;;;;0.50;0.40;;;18.40;58.10;;;;;;5049814;28;20090;-59
2022/09/10 11:44:30;;;;;;;0.30;0.30;;;18.40;58.40;;;;;;5050536;28;20044;-59
2022/09/10 11:47:22;;;;;;;1.05;0.20;;;18.40;58.00;;;;;;5050242;28;20049;-59
2022/09/10 11:50:05;;;;;;;0.20;0.20;;;18.40;58.90;;;;;;5050692;28;20055;-59
2022/09/10 11:52:33;;;;;;;0.57;0.50;;;18.40;58.10;;;;;;5047085;28;20498;-59
2022/09/10 11:55:03;;;;;;;0.88;0.28;;;18.40;58.40;;;;;;5049119;28;20083;-59
2022/09/10 11:58:10;;;;;;;0.30;0.30;;;18.40;58.60;;;;;;5033193;28;20405;-59
2022/09/10 12:00:56;;;;;;;0.40;0.40;;;18.40;58.20;;;;;;5049177;28;20615;-59
2022/09/10 12:03:52;;;;;;;1.38;0.43;;;18.40;58.00;;;;;;5049447;28;20401;-59
2022/09/10 12:06:32;;;;;;;0.65;0.50;;;18.50;57.70;;;;;;5050172;28;20049;-59
2022/09/10 12:09:12;;;;;;;0.35;0.30;;;18.40;57.90;;;;;;5049761;28;20437;-59
2022/09/10 12:12:12;;;;;;;0.77;0.27;;;18.40;58.10;;;;;;5049749;28;20345;-59
2022/09/10 12:14:40;;;;;;;0.17;0.13;;;18.40;57.80;;;;;;5049403;28;20290;-59
2022/09/10 12:17:32;;;;;;;0.30;0.30;;;18.40;57.80;;;;;;5049693;28;20489;-59
2022/09/10 12:20:01;;;;;;;0.65;0.30;;;18.40;57.90;;;;;;5049318;28;20055;-59
2022/09/10 12:22:36;;;;;;;0.63;0.45;;;18.50;58.00;;;;;;5049370;28;20041;-59
2022/09/10 12:25:07;;;;;;;0.47;0.47;;;18.50;58.10;;;;;;5044681;28;20048;-59
2022/09/10 12:27:47;;;;;;;0.90;0.30;;;18.50;58.40;;;;;;5049194;28;20045;-59
2022/09/10 12:30:54;;;;;;;0.10;0.10;;;18.50;58.70;;;;;;5032239;28;20052;-59
2022/09/10 12:34:01;;;;;;;0.20;0.20;;;18.60;58.60;;;;;;5034395;28;20472;-59
2022/09/10 12:37:09;;;;;;;0.20;0.20;;;18.60;58.40;;;;;;5023982;28;20140;-59
2022/09/10 12:39:36;;;;;;;0.75;0.25;;;18.60;58.20;;;;;;5023997;28;20049;-59
2022/09/10 12:42:29;;;;;;;0.20;0.20;;;18.60;58.60;;;;;;5049405;28;20136;-59
2022/09/10 12:44:56;;;;;;;1.55;0.47;;;18.70;58.80;;;;;;5047315;28;20049;-59
2022/09/10 12:47:43;;;;;;;0.90;0.28;;;18.70;58.50;;;;;;5049789;28;20137;-59
2022/09/10 12:50:32;;;;;;;0.32;0.17;;;18.80;58.40;;;;;;5048738;28;20053;-59
2022/09/10 12:53:16;;;;;;;0.25;0.25;;;18.80;57.90;;;;;;5048842;28;20057;-59
2022/09/10 12:55:58;;;;;;;0.13;0.13;;;18.80;58.00;;;;;;5048500;28;20050;-59
2022/09/10 12:58:59;;;;;;;0.17;0.17;;;18.80;58.20;;;;;;5044374;28;20383;-59
2022/09/10 13:01:45;;;;;;;0.20;0.20;;;18.90;58.20;;;;;;5033667;28;20517;-59
2022/09/10 13:04:29;;;;;;;0.20;0.10;;;18.90;58.20;;;;;;5048479;28;20051;-59
2022/09/10 13:07:04;;;;;;;0.70;0.20;;;18.90;57.80;;;;;;5049193;28;20401;-59
2022/09/10 13:09:38;;;;;;;0.30;0.30;;;18.80;58.00;;;;;;5048905;28;20053;-59
2022/09/10 13:12:22;;;;;;;0.30;0.30;;;18.90;58.00;;;;;;5049339;28;20041;-59
2022/09/10 13:14:53;;;;;;;0.98;0.10;;;18.90;57.90;;;;;;5047885;28;20137;-59
2022/09/10 13:17:39;;;;;;;0.20;0.20;;;18.90;57.90;;;;;;5048959;28;20048;-59
2022/09/10 13:20:28;;;;;;;0.25;0.20;;;19.00;57.90;;;;;;5048656;28;20052;-59
2022/09/10 13:23:20;;;;;;;0.10;0.10;;;19.00;57.80;;;;;;5017488;28;20050;-59
2022/09/10 13:25:51;;;;;;;0.43;0.40;;;19.00;57.80;;;;;;5034209;28;20469;-59
2022/09/10 13:28:59;;;;;;;0.20;0.20;;;19.00;58.00;;;;;;5030410;28;20037;-59